Time;durP1;ratioP1;P1;durP2;ratioP2;P2;SDS_P1;SDS_P2;PMS_P1;PMS_P2;Temp;Humidity;BMP_temperature;BMP_pressure;BME280_temperature;BME280_humidity;BME280_pressure;Samples;Min_cycle;Max_cycle;Signal;HPM_P1;HPM_P2
2022/10/03 00:02:34;;;;;;;;;;;;;;;12.32;70.40;101360.91;5050796;28;20365;-54
2022/10/03 00:05:27;;;;;;;;;;;;;;;12.32;70.54;101362.72;5049108;28;20408;-52
2022/10/03 00:07:55;;;;;;;;;;;;;;;12.34;70.34;101361.69;5056917;28;19923;-52
2022/10/03 00:10:34;;;;;;;;;;;;;;;12.34;70.42;101369.63;5033747;28;20196;-55
2022/10/03 00:13:00;;;;;;;;;;;;;;;12.33;70.42;101365.25;5052356;28;20685;-54
2022/10/03 00:15:46;;;;;;;;;;;;;;;12.34;70.59;101376.66;5049994;28;19973;-53
2022/10/03 00:18:50;;;;;;;;;;;;;;;12.31;70.53;101375.06;5055805;28;19920;-55
2022/10/03 00:21:34;;;;;;;;;;;;;;;12.28;70.36;101369.94;4953908;28;20060;-55
2022/10/03 00:24:08;;;;;;;;;;;;;;;12.26;70.44;101373.59;4953739;28;19996;-54
2022/10/03 00:26:43;;;;;;;;;;;;;;;12.26;70.59;101366.53;5015641;28;20043;-53
2022/10/03 00:29:14;;;;;;;;;;;;;;;12.26;70.59;101370.97;5049274;28;20298;-55
2022/10/03 00:31:54;;;;;;;;;;;;;;;12.25;70.64;101371.91;5051336;28;20270;-54
2022/10/03 00:34:27;;;;;;;;;;;;;;;12.22;70.82;101374.69;5049012;28;20392;-53
2022/10/03 00:36:56;;;;;;;;;;;;;;;12.20;70.80;101366.88;5047281;28;19958;-55
2022/10/03 00:39:36;;;;;;;;;;;;;;;12.20;70.85;101366.88;5049562;28;20385;-51
2022/10/03 00:42:07;;;;;;;;;;;;;;;12.19;71.06;101371.28;5045389;28;19916;-56
2022/10/03 00:44:36;;;;;;;;;;;;;;;12.19;71.10;101376.56;5046491;28;21433;-54
2022/10/03 00:47:20;;;;;;;;;;;;;;;12.21;71.08;101373.84;5056650;28;20359;-54
2022/10/03 00:49:55;;;;;;;;;;;;;;;12.24;71.30;101383.38;5052287;28;19916;-52
2022/10/03 00:52:30;;;;;;;;;;;;;;;12.26;71.14;101385.00;5048465;28;20027;-52
2022/10/03 00:54:58;;;;;;;;;;;;;;;12.26;71.30;101389.44;5045918;28;21061;-52
2022/10/03 00:57:23;;;;;;;;;;;;;;;12.26;71.32;101390.28;5055003;28;19924;-51
2022/10/03 01:00:12;;;;;;;;;;;;;;;12.28;71.43;101398.97;5054586;28;19978;-53
2022/10/03 01:02:56;;;;;;;;;;;;;;;12.28;71.50;101392.84;5053359;28;19928;-52
2022/10/03 01:05:24;;;;;;;;;;;;;;;12.27;71.76;101397.25;5048751;28;19943;-51
2022/10/03 01:08:04;;;;;;;;;;;;;;;12.29;71.73;101392.75;5052436;28;19928;-54
2022/10/03 01:10:35;;;;;;;;;;;;;;;12.34;71.59;101389.84;5054241;28;19965;-55
2022/10/03 01:13:25;;;;;;;;;;;;;;;12.36;71.63;101390.63;5054068;28;19923;-52
2022/10/03 01:16:06;;;;;;;;;;;;;;;12.37;71.65;101400.25;5052978;28;19950;-51
2022/10/03 01:18:37;;;;;;;;;;;;;;;12.33;71.83;101393.44;5054578;28;19939;-54
2022/10/03 01:21:21;;;;;;;;;;;;;;;12.34;71.94;101401.28;5049562;28;20393;-52
2022/10/03 01:24:05;;;;;;;;;;;;;;;12.39;71.63;101402.81;5054031;28;20063;-54
2022/10/03 01:26:43;;;;;;;;;;;;;;;12.37;71.82;101397.59;5051365;28;19917;-52
2022/10/03 01:32:11;;;;;;;;;;;;;;;12.39;71.90;101408.94;5048959;28;20121;-52
2022/10/03 01:34:43;;;;;;;;;;;;;;;12.39;72.12;101403.66;5046872;28;19932;-53
2022/10/03 01:37:12;;;;;;;;;;;;;;;12.39;72.22;101419.50;5040417;28;19927;-52
2022/10/03 01:39:43;;;;;;;;;;;;;;;12.38;72.12;101417.78;5046252;28;20313;-52
2022/10/03 01:42:13;;;;;;;;;;;;;;;12.39;72.24;101416.84;5032320;28;20382;-53
2022/10/03 01:44:42;;;;;;;;;;;;;;;12.38;72.27;101409.88;5050778;28;20450;-52
2022/10/03 01:47:07;;;;;;;;;;;;;;;12.41;72.15;101416.75;5052190;28;19931;-55
2022/10/03 01:49:37;;;;;;;;;;;;;;;12.42;72.29;101414.06;5055824;28;19925;-53
2022/10/03 01:52:06;;;;;;;;;;;;;;;12.44;72.29;101417.47;5050632;28;19924;-52
2022/10/03 01:54:55;;;;;;;;;;;;;;;12.45;71.92;101403.34;5038046;28;19932;-53
2022/10/03 01:57:20;;;;;;;;;;;;;;;12.46;72.12;101409.44;5054540;28;19973;-53
2022/10/03 01:59:49;;;;;;;;;;;;;;;12.47;71.96;101406.75;5052896;28;19920;-54
2022/10/03 02:02:27;;;;;;;;;;;;;;;12.45;72.24;101410.38;5051038;28;20012;-53
2022/10/03 02:05:03;;;;;;;;;;;;;;;12.44;72.24;101406.03;5043057;28;20351;-53
2022/10/03 02:07:33;;;;;;;;;;;;;;;12.44;72.21;101414.81;5046482;28;19931;-52
2022/10/03 02:09:59;;;;;;;;;;;;;;;12.46;72.37;101412.09;5043597;28;19925;-54
2022/10/03 02:12:29;;;;;;;;;;;;;;;12.43;72.47;101410.47;5047730;28;19936;-54
2022/10/03 02:15:01;;;;;;;;;;;;;;;12.38;72.67;101407.22;5045028;28;20431;-54
2022/10/03 02:17:35;;;;;;;;;;;;;;;12.40;72.66;101399.25;5047684;28;19939;-53
2022/10/03 02:20:03;;;;;;;;;;;;;;;12.39;72.63;101413.38;5045244;28;19931;-53
2022/10/03 02:22:45;;;;;;;;;;;;;;;12.35;72.70;101410.91;5045575;28;19990;-53
2022/10/03 02:25:24;;;;;;;;;;;;;;;12.31;73.15;101416.44;5051278;28;19920;-53
2022/10/03 02:28:08;;;;;;;;;;;;;;;12.28;73.26;101414.78;5049563;28;19927;-54
2022/10/03 02:30:41;;;;;;;;;;;;;;;12.27;73.58;101430.72;5050778;28;19927;-54
2022/10/03 02:33:06;;;;;;;;;;;;;;;12.27;73.54;101417.53;5047615;28;20933;-53
2022/10/03 02:35:50;;;;;;;;;;;;;;;12.30;73.48;101422.66;5059854;28;19920;-55
2022/10/03 02:38:34;;;;;;;;;;;;;;;12.31;73.50;101422.56;5058085;28;20412;-53
2022/10/03 02:41:03;;;;;;;;;;;;;;;12.32;73.46;101439.25;5056383;28;19928;-53
2022/10/03 02:43:47;;;;;;;;;;;;;;;12.33;73.47;101430.38;5058545;28;19960;-55
2022/10/03 02:46:21;;;;;;;;;;;;;;;12.35;73.53;101439.06;5057878;28;20373;-53
2022/10/03 02:49:06;;;;;;;;;;;;;;;12.37;73.54;101439.84;5040219;28;19962;-54
2022/10/03 02:51:58;;;;;;;;;;;;;;;12.39;73.39;101432.69;5049413;28;19917;-53
2022/10/03 02:54:26;;;;;;;;;;;;;;;12.38;73.50;101438.91;5050310;28;19928;-53
2022/10/03 02:56:51;;;;;;;;;;;;;;;12.37;73.63;101442.47;5051583;28;21299;-53
2022/10/03 02:59:36;;;;;;;;;;;;;;;12.38;73.73;101448.63;5051531;28;20376;-54
2022/10/03 03:02:01;;;;;;;;;;;;;;;12.38;73.53;101454.75;5048568;28;19990;-54
2022/10/03 03:04:36;;;;;;;;;;;;;;;12.37;73.56;101450.38;5052697;28;19921;-54
2022/10/03 03:07:21;;;;;;;;;;;;;;;12.38;73.66;101454.75;5051900;28;19930;-53
2022/10/03 03:09:52;;;;;;;;;;;;;;;12.37;73.50;101457.47;5051877;28;19928;-54
2022/10/03 03:12:36;;;;;;;;;;;;;;;12.35;73.64;101460.19;5047886;28;19924;-55
2022/10/03 03:15:07;;;;;;;;;;;;;;;12.33;73.74;101462.03;5052212;28;19932;-54
2022/10/03 03:17:32;;;;;;;;;;;;;;;12.27;74.06;101459.75;5056644;28;20289;-53
2022/10/03 03:20:24;;;;;;;;;;;;;;;12.24;73.95;101470.47;5046446;28;20015;-53
2022/10/03 03:23:03;;;;;;;;;;;;;;;12.20;74.25;101486.44;5050224;28;20385;-54
2022/10/03 03:25:43;;;;;;;;;;;;;;;12.22;74.21;101469.69;5054902;28;20367;-53
2022/10/03 03:28:18;;;;;;;;;;;;;;;12.22;74.42;101472.31;5050056;28;19916;-53
2022/10/03 03:30:59;;;;;;;;;;;;;;;12.26;74.26;101487.06;5050163;28;19920;-53
2022/10/03 03:33:24;;;;;;;;;;;;;;;12.28;74.16;101479.94;5052754;28;19921;-53
2022/10/03 03:35:52;;;;;;;;;;;;;;;12.30;74.20;101480.69;5048549;28;19921;-53
2022/10/03 03:38:20;;;;;;;;;;;;;;;12.31;74.04;101477.97;5050359;28;19951;-53
2022/10/03 03:41:04;;;;;;;;;;;;;;;12.34;73.98;101469.03;5050317;28;20396;-55
2022/10/03 03:43:36;;;;;;;;;;;;;;;12.38;73.95;101472.38;5049448;28;20238;-55
2022/10/03 03:46:09;;;;;;;;;;;;;;;12.40;73.95;101473.97;5047293;28;19916;-53
2022/10/03 03:48:41;;;;;;;;;;;;;;;12.42;73.83;101477.41;5048746;28;19966;-55
2022/10/03 03:51:17;;;;;;;;;;;;;;;12.43;73.59;101479.09;5049072;28;20007;-54
2022/10/03 03:54:01;;;;;;;;;;;;;;;12.44;73.46;101475.53;5054851;28;20021;-53
2022/10/03 03:56:29;;;;;;;;;;;;;;;12.43;73.58;101475.59;5055741;28;19947;-54
2022/10/03 03:59:13;;;;;;;;;;;;;;;12.43;73.72;101478.25;5055600;28;19942;-55
2022/10/03 04:01:54;;;;;;;;;;;;;;;12.40;73.66;101481.91;5049000;28;19978;-53
2022/10/03 04:04:34;;;;;;;;;;;;;;;12.40;73.40;101484.53;5056674;28;19924;-53
2022/10/03 04:07:02;;;;;;;;;;;;;;;12.39;73.55;101488.13;5049017;28;20067;-52
2022/10/03 04:10:02;;;;;;;;;;;;;;;12.39;73.58;101506.59;5053734;28;19929;-53
2022/10/03 04:12:46;;;;;;;;;;;;;;;12.40;73.32;101496.91;4949864;28;19941;-55
2022/10/03 04:15:14;;;;;;;;;;;;;;;12.40;73.54;101510.94;5047711;28;19936;-53
2022/10/03 04:20:43;;;;;;;;;;;;;;;12.45;73.51;101515.97;5055598;28;19942;-53
2022/10/03 04:23:08;;;;;;;;;;;;;;;12.45;73.09;101511.56;5057444;28;19913;-53
2022/10/03 04:25:43;;;;;;;;;;;;;;;12.46;73.16;101510.63;5058475;28;19920;-54
2022/10/03 04:28:33;;;;;;;;;;;;;;;12.47;72.98;101511.47;5051949;28;19928;-53
2022/10/03 04:30:58;;;;;;;;;;;;;;;12.47;73.22;101507.06;5045034;28;19921;-53
2022/10/03 04:33:46;;;;;;;;;;;;;;;12.48;73.08;101515.81;5054850;28;20332;-53
2022/10/03 04:36:24;;;;;;;;;;;;;;;12.50;73.34;101511.31;5001762;28;20007;-54
2022/10/03 04:38:56;;;;;;;;;;;;;;;12.50;73.26;101517.41;5049963;28;20198;-54
2022/10/03 04:41:27;;;;;;;;;;;;;;;12.55;73.17;101516.31;5057248;28;19924;-53
2022/10/03 04:44:11;;;;;;;;;;;;;;;12.59;73.08;101515.22;5055491;28;20396;-53
2022/10/03 04:46:59;;;;;;;;;;;;;;;12.62;73.16;101525.63;5054687;28;19917;-54
2022/10/03 04:49:27;;;;;;;;;;;;;;;12.62;73.00;101525.63;5056883;28;20019;-54
2022/10/03 04:52:05;;;;;;;;;;;;;;;12.63;72.86;101519.38;5050172;28;20457;-53
2022/10/03 04:54:46;;;;;;;;;;;;;;;12.64;73.05;101529.03;5051009;28;19925;-53
2022/10/03 04:57:18;;;;;;;;;;;;;;;12.60;73.08;101522.22;5049881;28;19922;-53
2022/10/03 04:59:43;;;;;;;;;;;;;;;12.58;73.17;101527.56;5049653;28;19939;-53
2022/10/03 05:02:35;;;;;;;;;;;;;;;12.56;73.44;101525.94;5045782;28;20336;-53
2022/10/03 05:05:12;;;;;;;;;;;;;;;12.54;73.28;101557.72;5010975;28;19925;-53
2022/10/03 05:07:44;;;;;;;;;;;;;;;12.54;73.46;101559.50;5058860;28;20706;-53
2022/10/03 05:10:25;;;;;;;;;;;;;;;12.54;73.41;101551.56;5049802;28;20130;-53
2022/10/03 05:13:04;;;;;;;;;;;;;;;12.55;73.55;101542.72;5049626;28;19920;-54
2022/10/03 05:15:39;;;;;;;;;;;;;;;12.55;73.37;101564.72;5048119;28;19928;-53
2022/10/03 05:18:13;;;;;;;;;;;;;;;12.55;73.39;101548.00;5052153;28;19923;-54
2022/10/03 05:20:57;;;;;;;;;;;;;;;12.55;73.21;101556.78;5046603;28;19920;-54
2022/10/03 05:23:52;;;;;;;;;;;;;;;12.56;73.08;101547.91;5048216;28;19963;-53
2022/10/03 05:26:23;;;;;;;;;;;;;;;12.56;73.22;101555.00;5029376;28;19935;-55
2022/10/03 05:29:04;;;;;;;;;;;;;;;12.56;73.10;101547.91;5050140;28;19928;-53
2022/10/03 05:31:48;;;;;;;;;;;;;;;12.56;73.10;101555.84;5046852;28;19951;-53
2022/10/03 05:34:16;;;;;;;;;;;;;;;12.56;73.11;101566.38;5053309;28;20011;-53
2022/10/03 05:37:14;;;;;;;;;;;;;;;12.57;73.00;101559.34;5030554;28;19946;-53
2022/10/03 05:39:40;;;;;;;;;;;;;;;12.54;72.92;101567.41;4995849;28;19930;-53
2022/10/03 05:42:23;;;;;;;;;;;;;;;12.54;72.88;101564.78;5053308;28;19943;-53
2022/10/03 05:44:57;;;;;;;;;;;;;;;12.55;72.73;101562.06;5049469;28;19925;-53
2022/10/03 05:47:47;;;;;;;;;;;;;;;12.56;72.88;101563.75;5031565;28;19921;-53
2022/10/03 05:50:32;;;;;;;;;;;;;;;12.57;72.80;101575.19;5049188;28;20420;-53
2022/10/03 05:53:01;;;;;;;;;;;;;;;12.56;72.58;101570.84;5045687;28;19927;-53
2022/10/03 05:55:39;;;;;;;;;;;;;;;12.56;72.66;101582.22;5047835;28;19935;-54
2022/10/03 05:58:04;;;;;;;;;;;;;;;12.56;72.55;101573.47;5054777;28;19924;-55
2022/10/03 06:00:41;;;;;;;;;;;;;;;12.57;72.70;101575.19;5055323;28;19928;-54
2022/10/03 06:03:29;;;;;;;;;;;;;;;12.59;72.43;101574.16;5055832;28;20006;-55
2022/10/03 06:06:16;;;;;;;;;;;;;;;12.59;72.37;101582.06;5059311;28;19931;-54
2022/10/03 06:08:48;;;;;;;;;;;;;;;12.61;72.45;101598.69;5055518;28;20305;-54
2022/10/03 06:11:25;;;;;;;;;;;;;;;12.64;72.21;101602.94;5062640;28;19923;-54
2022/10/03 06:14:00;;;;;;;;;;;;;;;12.62;72.05;101589.84;5018449;28;19927;-51
2022/10/03 06:16:40;;;;;;;;;;;;;;;12.60;71.97;101601.44;5040790;28;19982;-53
2022/10/03 06:19:18;;;;;;;;;;;;;;;12.59;72.08;101594.44;5053148;28;19963;-56
2022/10/03 06:22:02;;;;;;;;;;;;;;;12.60;71.98;101604.91;5048829;28;19924;-53
2022/10/03 06:24:48;;;;;;;;;;;;;;;12.60;71.94;101599.63;5051911;28;20313;-54
2022/10/03 06:27:32;;;;;;;;;;;;;;;12.64;71.66;101608.22;5050930;28;19970;-52
2022/10/03 06:30:16;;;;;;;;;;;;;;;12.65;71.83;101600.25;5056563;28;19927;-52
2022/10/03 06:32:42;;;;;;;;;;;;;;;12.68;71.67;101599.22;5049517;28;19921;-53
2022/10/03 06:35:26;;;;;;;;;;;;;;;12.70;71.56;101613.19;5055756;28;19920;-54
2022/10/03 06:38:08;;;;;;;;;;;;;;;12.73;71.45;101607.75;5058006;28;19916;-55
2022/10/03 06:40:47;;;;;;;;;;;;;;;12.76;71.33;101610.25;5048515;28;19965;-56
2022/10/03 06:43:28;;;;;;;;;;;;;;;12.76;71.22;101620.81;5052570;28;19918;-52
2022/10/03 06:46:03;;;;;;;;;;;;;;;12.78;71.36;101623.34;5049098;28;19924;-55
2022/10/03 06:48:47;;;;;;;;;;;;;;;12.80;71.42;101624.97;5050005;28;19925;-56
2022/10/03 06:51:21;;;;;;;;;;;;;;;12.86;71.10;101626.44;5049711;28;20361;-55
2022/10/03 06:53:59;;;;;;;;;;;;;;;12.90;71.23;101624.50;5049996;28;19921;-56
2022/10/03 06:56:43;;;;;;;;;;;;;;;12.92;71.13;101636.69;5053272;28;19916;-52
2022/10/03 06:59:27;;;;;;;;;;;;;;;12.98;70.86;101632.00;5044437;28;19962;-54
2022/10/03 07:02:05;;;;;;;;;;;;;;;12.95;70.73;101620.66;5043353;28;19916;-54
2022/10/03 07:04:38;;;;;;;;;;;;;;;12.99;71.06;101639.84;5045126;28;19942;-52
2022/10/03 07:07:22;;;;;;;;;;;;;;;13.01;70.82;101622.13;5051236;28;19923;-52
2022/10/03 07:09:48;;;;;;;;;;;;;;;13.05;70.79;101636.88;5049154;28;19970;-54
2022/10/03 07:12:22;;;;;;;;;;;;;;;13.08;70.88;101641.97;5047158;28;19924;-52
2022/10/03 07:15:01;;;;;;;;;;;;;;;13.13;70.74;101635.59;5050675;28;19925;-52
2022/10/03 07:17:38;;;;;;;;;;;;;;;13.16;70.71;101646.84;5060748;28;19916;-52
2022/10/03 07:20:14;;;;;;;;;;;;;;;13.18;70.53;101641.50;5059614;28;20017;-53
2022/10/03 07:22:57;;;;;;;;;;;;;;;13.19;70.59;101645.84;5057074;28;19974;-53
2022/10/03 07:25:32;;;;;;;;;;;;;;;13.21;70.72;101649.28;5068006;28;20328;-53
2022/10/03 07:28:09;;;;;;;;;;;;;;;13.23;70.58;101650.03;5049957;28;19932;-53
2022/10/03 07:30:46;;;;;;;;;;;;;;;13.24;70.56;101657.88;5054656;28;20519;-53
2022/10/03 07:33:30;;;;;;;;;;;;;;;13.28;70.64;101658.56;5058351;28;20007;-52
2022/10/03 07:39:17;;;;;;;;;;;;;;;13.32;70.44;101665.38;5063889;28;19923;-52
2022/10/03 07:42:15;;;;;;;;;;;;;;;13.34;70.37;101671.44;5041687;28;19924;-52
2022/10/03 07:44:59;;;;;;;;;;;;;;;13.39;70.30;101692.34;5020301;28;20015;-53
2022/10/03 07:47:44;;;;;;;;;;;;;;;13.40;70.10;101684.34;5047320;28;20004;-54
2022/10/03 07:50:28;;;;;;;;;;;;;;;13.45;69.97;101670.03;5053163;28;20015;-51
2022/10/03 07:53:12;;;;;;;;;;;;;;;13.47;69.75;101670.78;5050280;28;19928;-52
2022/10/03 07:55:43;;;;;;;;;;;;;;;13.49;69.75;101695.38;5049194;28;19925;-52
2022/10/03 07:58:36;;;;;;;;;;;;;;;13.53;69.55;101676.59;5059810;28;20238;-52
2022/10/03 08:01:20;;;;;;;;;;;;;;;13.58;69.71;101697.50;5046432;28;19927;-53
2022/10/03 08:03:45;;;;;;;;;;;;;;;13.62;69.50;101709.63;5052693;28;19924;-52
2022/10/03 08:06:17;;;;;;;;;;;;;;;13.67;69.25;101720.81;5060532;28;19962;-53
2022/10/03 08:08:49;;;;;;;;;;;;;;;13.69;69.25;101700.38;5061523;28;19920;-55
2022/10/03 08:11:34;;;;;;;;;;;;;;;13.73;69.25;101698.44;5055617;28;20039;-55
2022/10/03 08:14:00;;;;;;;;;;;;;;;13.79;69.12;101707.81;5026021;28;20225;-52
2022/10/03 08:16:25;;;;;;;;;;;;;;;13.84;69.15;101729.59;5037703;28;19979;-59
2022/10/03 08:19:08;;;;;;;;;;;;;;;13.86;68.78;101719.75;5045034;28;19992;-54
2022/10/03 08:21:46;;;;;;;;;;;;;;;13.87;68.92;101713.53;5047292;28;20015;-55
2022/10/03 08:24:20;;;;;;;;;;;;;;;13.88;68.69;101733.75;5043636;28;19935;-51
2022/10/03 08:26:54;;;;;;;;;;;;;;;13.85;68.51;101705.69;5047294;28;19916;-51
2022/10/03 08:29:20;;;;;;;;;;;;;;;13.87;68.84;101721.47;5050355;28;20001;-52
2022/10/03 08:32:04;;;;;;;;;;;;;;;13.88;68.84;101720.53;5046650;28;19920;-51
2022/10/03 08:34:29;;;;;;;;;;;;;;;13.91;68.85;101722.16;5050086;28;20011;-52
2022/10/03 08:36:54;;;;;;;;;;;;;;;13.96;68.92;101736.84;5047963;28;19921;-53
2022/10/03 08:39:19;;;;;;;;;;;;;;;14.02;68.74;101727.69;5047425;28;19932;-51
2022/10/03 08:42:03;;;;;;;;;;;;;;;14.08;68.25;101723.84;5041505;28;20215;-53
2022/10/03 08:44:44;;;;;;;;;;;;;;;14.10;68.07;101727.25;5046720;28;19948;-53
2022/10/03 08:47:24;;;;;;;;;;;;;;;14.10;67.83;101733.41;5047498;28;20005;-52
2022/10/03 08:50:02;;;;;;;;;;;;;;;14.14;67.86;101744.69;5048354;28;19924;-53
2022/10/03 08:52:37;;;;;;;;;;;;;;;14.14;67.70;101734.94;5058533;28;19967;-54
2022/10/03 08:55:02;;;;;;;;;;;;;;;14.16;67.78;101732.19;5053759;28;20032;-53
2022/10/03 08:57:36;;;;;;;;;;;;;;;14.17;67.15;101757.72;5052123;28;20003;-52
2022/10/03 09:00:04;;;;;;;;;;;;;;;14.15;67.04;101727.84;5067015;28;19916;-52
2022/10/03 09:02:59;;;;;;;;;;;;;;;14.15;67.06;101736.66;5060811;28;20489;-52
2022/10/03 09:05:43;;;;;;;;;;;;;;;14.19;66.99;101747.91;5043234;28;19920;-53
2022/10/03 09:08:27;;;;;;;;;;;;;;;14.22;66.93;101734.50;5065204;28;20072;-54
2022/10/03 09:11:11;;;;;;;;;;;;;;;14.24;66.71;101745.84;5055334;28;21083;-52
2022/10/03 09:14:02;;;;;;;;;;;;;;;14.25;66.64;101747.56;5054140;28;20766;-52
2022/10/03 09:16:28;;;;;;;;;;;;;;;14.25;66.67;101742.25;5055617;28;19959;-53
2022/10/03 09:18:56;;;;;;;;;;;;;;;14.26;66.50;101759.84;5054205;28;19959;-53
2022/10/03 09:21:40;;;;;;;;;;;;;;;14.27;66.56;101750.09;5056408;28;20472;-53
2022/10/03 09:24:09;;;;;;;;;;;;;;;14.31;66.42;101767.53;5055494;28;19925;-53
2022/10/03 09:26:49;;;;;;;;;;;;;;;14.37;66.33;101761.03;5053265;28;20374;-54
2022/10/03 09:29:17;;;;;;;;;;;;;;;14.41;66.06;101760.75;5050193;28;19917;-54
2022/10/03 09:32:01;;;;;;;;;;;;;;;14.42;65.79;101761.63;5049521;28;20333;-54
2022/10/03 09:34:36;;;;;;;;;;;;;;;14.43;65.97;101782.72;5057872;28;19931;-52
2022/10/03 09:37:11;;;;;;;;;;;;;;;14.45;65.45;101775.53;5063141;28;19920;-52
2022/10/03 09:39:49;;;;;;;;;;;;;;;14.44;65.48;101771.19;5053014;28;20388;-55
2022/10/03 09:42:26;;;;;;;;;;;;;;;14.45;65.20;101757.00;5022839;28;19924;-54
2022/10/03 09:45:08;;;;;;;;;;;;;;;14.50;65.06;101754.06;5022077;28;19916;-54
2022/10/03 09:47:52;;;;;;;;;;;;;;;14.55;64.64;101753.81;5038906;28;19925;-55
2022/10/03 09:50:35;;;;;;;;;;;;;;;14.58;64.22;101754.50;5045084;28;19921;-55
2022/10/03 09:53:03;;;;;;;;;;;;;;;14.54;63.93;101799.75;5042117;28;20403;-54
2022/10/03 09:55:47;;;;;;;;;;;;;;;14.53;63.86;101777.75;5051226;28;19924;-54
2022/10/03 09:58:19;;;;;;;;;;;;;;;14.53;64.07;101767.16;5052409;28;20016;-55
2022/10/03 10:00:47;;;;;;;;;;;;;;;14.55;64.04;101765.25;5065505;28;19920;-53
2022/10/03 10:03:38;;;;;;;;;;;;;;;14.58;64.19;101802.16;5045231;28;19970;-54
2022/10/03 10:06:15;;;;;;;;;;;;;;;14.57;64.27;101789.00;5028241;28;19921;-55
2022/10/03 10:09:20;;;;;;;;;;;;;;;14.59;63.98;101777.41;5063006;28;19970;-54
2022/10/03 10:12:01;;;;;;;;;;;;;;;14.55;63.90;101775.00;5057948;28;19998;-52
2022/10/03 10:14:38;;;;;;;;;;;;;;;14.55;63.97;101778.50;5057885;28;20003;-55
2022/10/03 10:17:09;;;;;;;;;;;;;;;14.58;64.13;101770.38;5052967;28;19924;-55
2022/10/03 10:19:47;;;;;;;;;;;;;;;14.62;63.98;101784.28;5048965;28;20437;-57
2022/10/03 10:22:23;;;;;;;;;;;;;;;14.67;63.95;101779.56;5065788;28;19966;-52
2022/10/03 10:25:08;;;;;;;;;;;;;;;14.70;63.85;101799.78;5067911;28;19920;-52
2022/10/03 10:27:40;;;;;;;;;;;;;;;14.71;63.35;101802.31;5049999;28;19961;-53
2022/10/03 10:30:20;;;;;;;;;;;;;;;14.72;63.40;101787.31;5066803;28;20672;-55
2022/10/03 10:33:16;;;;;;;;;;;;;;;14.75;63.25;101808.28;5021350;28;20409;-56
2022/10/03 10:35:44;;;;;;;;;;;;;;;14.78;63.34;101786.91;5062837;28;19971;-57
2022/10/03 10:38:24;;;;;;;;;;;;;;;14.81;63.19;101813.25;5062869;28;21199;-56
2022/10/03 10:41:09;;;;;;;;;;;;;;;14.80;63.39;101790.34;5048064;28;19924;-52
2022/10/03 10:43:40;;;;;;;;;;;;;;;14.83;63.60;101811.34;5057736;28;19923;-53
2022/10/03 10:46:14;;;;;;;;;;;;;;;14.87;63.40;101797.00;5056882;28;19956;-55
2022/10/03 10:48:48;;;;;;;;;;;;;;;14.92;63.52;101796.72;5064880;28;19920;-56
2022/10/03 10:51:16;;;;;;;;;;;;;;;14.99;63.36;101790.09;5063765;28;19932;-54
2022/10/03 10:54:01;;;;;;;;;;;;;;;15.04;63.17;101795.97;5060865;28;19931;-53
2022/10/03 10:56:44;;;;;;;;;;;;;;;15.08;62.43;101786.03;5067107;28;19927;-54
2022/10/03 10:59:37;;;;;;;;;;;;;;;15.08;62.67;101783.38;5070979;28;20397;-57
2022/10/03 11:02:28;;;;;;;;;;;;;;;15.06;62.40;101786.13;5059172;28;20061;-54
2022/10/03 11:05:03;;;;;;;;;;;;;;;15.07;62.51;101786.97;5060106;28;19916;-54
2022/10/03 11:07:31;;;;;;;;;;;;;;;15.07;62.24;101789.63;5054659;28;20648;-53
2022/10/03 11:09:59;;;;;;;;;;;;;;;15.11;62.11;101775.25;5051816;28;19931;-54
2022/10/03 11:12:44;;;;;;;;;;;;;;;15.17;62.04;101777.53;5065181;28;19964;-54
2022/10/03 11:15:15;;;;;;;;;;;;;;;15.26;61.76;101786.75;5063209;28;20010;-55
2022/10/03 11:17:59;;;;;;;;;;;;;;;15.31;60.86;101781.16;5055009;28;20510;-54
2022/10/03 11:20:37;;;;;;;;;;;;;;;15.37;60.58;101778.09;5068604;28;19919;-54
2022/10/03 11:23:14;;;;;;;;;;;;;;;15.44;59.90;101774.13;5060054;28;20370;-55
2022/10/03 11:25:59;;;;;;;;;;;;;;;15.48;59.55;101791.56;5069277;28;19920;-54
2022/10/03 11:28:42;;;;;;;;;;;;;;;15.52;59.43;101777.16;5039458;28;19927;-56
2022/10/03 11:31:27;;;;;;;;;;;;;;;15.55;58.80;101782.28;5055748;28;20037;-53
2022/10/03 11:34:08;;;;;;;;;;;;;;;15.61;58.94;101780.19;5058327;28;19920;-53
2022/10/03 11:36:51;;;;;;;;;;;;;;;15.68;58.67;101777.06;5052069;28;20405;-55
2022/10/03 11:39:41;;;;;;;;;;;;;;;15.73;58.15;101776.75;5051856;28;19925;-54
2022/10/03 11:42:10;;;;;;;;;;;;;;;15.74;57.73;101774.94;5052253;28;19924;-54
2022/10/03 11:44:44;;;;;;;;;;;;;;;15.77;57.64;101766.81;5054551;28;19942;-53
2022/10/03 11:47:13;;;;;;;;;;;;;;;15.78;56.93;101771.16;5057531;28;19920;-58
2022/10/03 11:49:47;;;;;;;;;;;;;;;15.78;57.19;101769.38;5055517;28;19943;-53
2022/10/03 11:52:23;;;;;;;;;;;;;;;15.80;57.06;101771.91;5054653;28;20372;-54
2022/10/03 11:54:54;;;;;;;;;;;;;;;15.83;56.93;101774.38;5059837;28;19925;-54
2022/10/03 11:57:45;;;;;;;;;;;;;;;15.84;57.21;101754.84;5063723;28;19924;-52
2022/10/03 12:00:11;;;;;;;;;;;;;;;15.92;57.23;101762.34;5054939;28;19931;-56
2022/10/03 12:02:55;;;;;;;;;;;;;;;15.97;56.78;101760.25;5052516;28;19920;-54
2022/10/03 12:08:53;;;;;;;;;;;;;;;16.00;56.44;101765.34;5064267;28;20650;-55
2022/10/03 12:08:55;;;;;;;;;;;;;;;16.06;56.48;101766.75;5059874;28;19919;-55
2022/10/03 12:11:31;;;;;;;;;;;;;;;16.12;56.20;101759.25;5026748;28;19927;-55
2022/10/03 12:14:09;;;;;;;;;;;;;;;16.13;55.96;101771.56;5036333;28;20018;-54
2022/10/03 12:16:34;;;;;;;;;;;;;;;16.13;56.13;101799.94;5051568;28;19948;-52
2022/10/03 12:19:21;;;;;;;;;;;;;;;16.12;55.98;101753.94;5058123;28;20722;-55
2022/10/03 12:21:53;;;;;;;;;;;;;;;16.14;56.19;101786.56;5054715;28;20401;-56
2022/10/03 12:24:33;;;;;;;;;;;;;;;16.14;55.84;101799.81;5069707;28;19983;-52
2022/10/03 12:27:18;;;;;;;;;;;;;;;16.12;56.04;101756.59;5056792;28;20449;-53
2022/10/03 12:29:50;;;;;;;;;;;;;;;16.17;56.32;101750.13;5053499;28;19928;-58
2022/10/03 12:32:42;;;;;;;;;;;;;;;16.18;56.39;101763.34;5049094;28;19916;-60
2022/10/03 12:35:34;;;;;;;;;;;;;;;16.20;56.53;101765.88;5052926;28;19948;-58
2022/10/03 12:38:02;;;;;;;;;;;;;;;16.26;56.46;101781.41;5052791;28;19924;-56
2022/10/03 12:40:28;;;;;;;;;;;;;;;16.28;55.95;101759.09;5044937;28;19923;-52
2022/10/03 12:43:09;;;;;;;;;;;;;;;16.32;56.57;101775.69;5060663;28;19925;-52
2022/10/03 12:45:48;;;;;;;;;;;;;;;16.33;55.97;101795.97;5051048;28;19927;-55
2022/10/03 12:48:38;;;;;;;;;;;;;;;16.33;56.04;101781.88;5066113;28;20338;-53
2022/10/03 12:51:05;;;;;;;;;;;;;;;16.27;56.21;101783.09;5026014;28;19931;-52
2022/10/03 12:53:40;;;;;;;;;;;;;;;16.23;56.04;101768.34;5031945;28;19924;-52
2022/10/03 12:56:08;;;;;;;;;;;;;;;16.18;56.36;101781.06;5036959;28;20450;-52
2022/10/03 12:58:36;;;;;;;;;;;;;;;16.11;56.60;101773.47;5044844;28;19928;-54
2022/10/03 13:01:10;;;;;;;;;;;;;;;16.09;56.35;101786.03;5049834;28;19934;-53
2022/10/03 13:03:38;;;;;;;;;;;;;;;16.06;56.71;101786.22;5064974;28;19916;-55
2022/10/03 13:06:24;;;;;;;;;;;;;;;16.03;56.86;101786.41;5062651;28;20294;-56
2022/10/03 13:08:50;;;;;;;;;;;;;;;16.01;57.15;101783.00;5051953;28;19916;-54
2022/10/03 13:11:34;;;;;;;;;;;;;;;16.04;57.38;101779.28;5060149;28;19927;-54
2022/10/03 13:14:05;;;;;;;;;;;;;;;16.04;57.58;101777.50;5063953;28;20457;-57
2022/10/03 13:16:53;;;;;;;;;;;;;;;16.08;57.90;101784.31;5031388;28;19920;-55
2022/10/03 13:19:22;;;;;;;;;;;;;;;16.12;57.91;101777.84;5003746;28;20003;-54
2022/10/03 13:22:05;;;;;;;;;;;;;;;16.12;58.13;101775.19;5049947;28;20438;-58
2022/10/03 13:24:31;;;;;;;;;;;;;;;16.13;58.33;101787.50;5059280;28;20003;-56
2022/10/03 13:27:15;;;;;;;;;;;;;;;16.13;58.49;101799.94;5056446;28;20479;-53
2022/10/03 13:29:54;;;;;;;;;;;;;;;16.10;58.35;101785.06;5062441;28;19924;-53
2022/10/03 13:32:20;;;;;;;;;;;;;;;16.10;58.46;101787.72;5063661;28;20022;-56
2022/10/03 13:37:52;;;;;;;;;;;;;;;16.12;58.55;101785.78;5058535;28;20003;-57
2022/10/03 13:40:18;;;;;;;;;;;;;;;16.17;58.54;101768.72;5054457;28;19920;-55